Terminal Aerodrome Forecast
Issued by NWS

Home | Current Version | Previous Version | Text Only | Print | Product List | Glossary On
Versions: 1 2 3 4 5 6 7 8 9 10 11 12 13 14
000
FTUS44 KMOB 182020 AAA
TAFBFM
TAF AMD
KBFM 182020Z 1820/1918 31007KT P6SM VCTS SCT040CB
      TEMPO 1820/1823 VRB15KT 3SM TSRA BR BKN025CB
     FM190100 VRB03KT P6SM SCT250
     FM191200 36004KT P6SM FEW020=

USA.gov is the U.S. government's official web portal to all federal, state and local government web resources and services.